ADDS METAR Data INFO
IDs: Format: Raw Decoded Include TAF

Data at: 2258 UTC 22 Jun 2018

KIDP 222235Z AUTO 36005KT 10SM CLR 28/17 A2976 RMK AO2 T02760174
KIDP 222215Z AUTO 31004KT 7SM HZ CLR 27/17 A2977 RMK AO2 T02730174
KIDP 222155Z AUTO 36004KT 10SM CLR 27/17 A2978 RMK AO2 T02730174
KIDP 222135Z AUTO 32008KT 270V360 10SM SCT040 27/18 A2979 RMK AO2 T02720178
KIDP 222115Z AUTO 29009KT 230V290 10SM CLR 27/18 A2981 RMK AO2 T02700180
KIDP 222055Z AUTO 30009KT 250V310 10SM CLR 27/18 A2981 RMK AO2 T02660177
KIDP 222035Z AUTO 28007KT 10SM SCT035 27/18 A2983 RMK AO2 T02660184
KIDP 222015Z AUTO 36009KT 10SM SCT035 26/17 A2983 RMK AO2 T02630175
KIDP 221955Z AUTO 31007KT 280V360 10SM SCT035 26/18 A2984 RMK AO2 T02590179
KIDP 221935Z AUTO 33007KT 10SM SCT035 25/17 A2985 RMK AO2 T02490170
KIDP 221915Z AUTO 31007KT 10SM SCT037 25/17 A2987 RMK AO2 T02550172
KIDP 221855Z AUTO 30009KT 10SM SCT037 25/17 A2987 RMK AO2 T02510172
KIDP 221835Z AUTO 30010KT 10SM OVC034 25/18 A2988 RMK AO2 T02450180
KIDP 221815Z AUTO 30011KT 10SM BKN032 OVC040 25/18 A2989 RMK AO2 T02480180
KIDP 221755Z AUTO 28009KT 250V310 10SM OVC033 24/18 A2989 RMK AO2 T02440178 10248 20181
KIDP 221735Z AUTO 26008KT 10SM OVC033 24/18 A2989 RMK AO2 T02430178
KIDP 221715Z AUTO 28006KT 10SM SCT029 OVC034 25/18 A2989 RMK AO2 T02450178
KIDP 221655Z AUTO 27005KT 10SM SCT026 OVC032 25/18 A2989 RMK AO2 T02460180
KIDP 221635Z AUTO 36007KT 300V010 10SM BKN026 OVC034 24/18 A2989 RMK AO2 T02400178
KIDP 221615Z AUTO 02007KT 10SM BKN028 OVC032 23/18 A2990 RMK AO2
KIDP 221555Z AUTO 34009KT 10SM OVC028 23/18 A2990 RMK AO2 T02330175
KIDP 221535Z AUTO 33007KT 10SM OVC027 23/17 A2990 RMK AO2 T02290174
KIDP 221515Z AUTO 32007KT 10SM OVC023 23/17 A2990 RMK AO2 T02290174
KIDP 221455Z AUTO 36009KT 10SM BKN021 BKN028 24/18 A2989 RMK AO2 T02360178
KIDP 221435Z AUTO 35008KT 10SM BKN021 OVC027 22/18 A2989 RMK AO2 T02240175
KIDP 221415Z AUTO 33008KT 10SM BKN019 OVC026 22/18 A2989 RMK AO2 T02160175
KIDP 221355Z AUTO 35010KT 10SM BKN015 22/18 A2988 RMK AO2 T02180177
KIDP 221335Z AUTO 34009KT 10SM SCT015 SCT021 21/18 A2988 RMK AO2 T02110176
KIDP 221315Z AUTO 33008KT 10SM BKN021 20/17 A2988 RMK AO2 T02040174
KIDP 221255Z AUTO 33007KT 10SM OVC017 20/17 A2989 RMK AO2 T01960172
KIDP 221235Z AUTO 34007KT 10SM OVC015 19/17 A2989 RMK AO2 T01910171
KIDP 221215Z AUTO 32005KT 10SM OVC015 19/17 A2989 RMK AO2 T01860169
KIDP 221155Z AUTO 33007KT 10SM OVC013 18/17 A2988 RMK AO2 T01810165 10194 20168
KIDP 221135Z AUTO 28007KT 10SM OVC013 18/17 A2989 RMK AO2 T01810166
KIDP 221115Z AUTO 28007KT 10SM OVC013 18/16 A2988 RMK AO2 T01800164
KIDP 221055Z AUTO 29006KT 10SM OVC013 18/16 A2987 RMK AO2 T01770163
KIDP 221035Z AUTO 30007KT 10SM SCT016 17/16 A2985 RMK AO2 T01690157
KIDP 221015Z AUTO 30006KT 10SM CLR 17/16 A2984 RMK AO2 T01720157
KIDP 220955Z AUTO 29005KT 10SM CLR 17/15 A2984 RMK AO2 T01690155
KIDP 220935Z AUTO 29005KT 10SM CLR 17/15 A2984 RMK AO2 T01690155
KIDP 220915Z AUTO 32003KT 10SM CLR 17/16 A2983 RMK AO2 T01710156
KIDP 220855Z AUTO 34005KT 10SM CLR 18/16 A2983 RMK AO2 T01780158
KIDP 220835Z AUTO 33005KT 10SM CLR 18/16 A2984 RMK AO2 T01760157
KIDP 220815Z AUTO 30005KT 10SM CLR 18/16 A2983 RMK AO2 T01800159
KIDP 220755Z AUTO 30007KT 10SM CLR 19/16 A2984 RMK AO2 T01870160
KIDP 220735Z AUTO 31006KT 10SM CLR 19/16 A2984 RMK AO2 T01870160
KIDP 220715Z AUTO 30006KT 10SM CLR 19/16 A2984 RMK AO2 T01870159
KIDP 220655Z AUTO 33007KT 10SM CLR 19/16 A2984 RMK AO2 T01910160
KIDP 220635Z AUTO 32007KT 10SM CLR 19/16 A2984 RMK AO2 T01920160
KIDP 220615Z AUTO 32007KT 10SM CLR 19/16 A2984 RMK AO2 T01930159
KIDP 220555Z AUTO 32007KT 10SM CLR 19/16 A2985 RMK AO2 T01950159 10282 20194
KIDP 220535Z AUTO 33008KT 10SM CLR 20/16 A2985 RMK AO2 T01960158
KIDP 220515Z AUTO 31006KT 10SM CLR 20/16 A2985 RMK AO2 T01990158
KIDP 220455Z AUTO 32007KT 10SM CLR 20/16 A2985 RMK AO2 T02010157
KIDP 220435Z AUTO 33007KT 10SM CLR 20/16 A2985 RMK AO2 T02020157
KIDP 220415Z AUTO 32007KT 10SM CLR 21/16 A2985 RMK AO2 T02080157
KIDP 220355Z AUTO 34008KT 10SM CLR 21/16 A2985 RMK AO2 T02140156
KIDP 220335Z AUTO 33009KT 10SM SCT090 22/16 A2985 RMK AO2 T02230155
KIDP 220315Z AUTO 33014G18KT 10SM OVC090 23/15 A2985 RMK AO2 T02310155
KIDP 220255Z AUTO 33015G21KT 10SM OVC090 24/15 A2984 RMK AO2 T02380154
KIDP 220235Z AUTO 34015G19KT 10SM OVC090 24/15 A2983 RMK AO2
KIDP 220215Z AUTO 34009KT 10SM BKN090 24/16 A2983 RMK AO2 T02400157
KIDP 220155Z AUTO 33010KT 10SM SCT090 24/15 A2982 RMK AO2 T02420154
KIDP 220135Z AUTO 34009KT 10SM CLR 25/15 A2981 RMK AO2 T02480154
KIDP 220115Z AUTO 34013KT 10SM CLR 26/15 A2981 RMK AO2 T02570153
KIDP 220055Z AUTO 36013KT 10SM CLR 27/15 A2981 RMK AO2 T02670152
KIDP 220035Z AUTO 35011KT 10SM CLR 27/15 A2980 RMK AO2 T02710153
KIDP 220015Z AUTO 34009KT 10SM CLR 28/16 A2979 RMK AO2 T02800156
KIDP 212355Z AUTO 35012KT 10SM CLR 28/15 A2979 RMK AO2 T02830149 10310 20278 403100176
KIDP 212335Z AUTO 35012KT 10SM SCT090 29/15 A2979 RMK AO2 T02880153
KIDP 212315Z AUTO 34012KT 10SM BKN090 29/15 A2979 RMK AO2 T02900151
KIDP 212255Z AUTO 34017KT 10SM BKN090 30/14 A2979 RMK AO2 T03010140
KIDP 212235Z AUTO 30014G25KT 10SM SCT090 30/13 A2979 RMK AO2 T03030133
KIDP 212215Z AUTO 29019G23KT 10SM SCT085 31/13 A2980 RMK AO2 T03050132
KIDP 212155Z AUTO 31012G22KT 10SM SCT085 31/14 A2980 RMK AO2 T03080143
KIDP 212135Z AUTO 31011KT 10SM SCT085 30/14 A2980 RMK AO2 T02990143
KIDP 212115Z AUTO 31013G19KT 7SM SCT085 30/15 A2981 RMK AO2 T03030146
KIDP 212055Z AUTO 29014G24KT 10SM SCT085 29/14 A2981 RMK AO2 T02930136
KIDP 212035Z AUTO 30019G28KT 10SM SCT085 30/13 A2981 RMK AO2
KIDP 212015Z AUTO 29014G27KT 10SM SCT075 31/14 A2982 RMK AO2 T03060145
KIDP 211955Z AUTO 30021G28KT 10SM SCT075 SCT090 30/13 A2983 RMK AO2 T03010132
KIDP 211935Z AUTO 28018G27KT 10SM SCT075 SCT090 30/13 A2983 RMK AO2 T02950135
KIDP 211915Z AUTO 27015G27KT 10SM CLR 29/14 A2983 RMK AO2 T02950138
KIDP 211855Z AUTO 26018G25KT 10SM SCT070 29/14 A2984 RMK AO2 T02930142
KIDP 211835Z AUTO 27019G26KT 10SM SCT070 29/14 A2985 RMK AO2
KIDP 211815Z AUTO 28018G23KT 10SM CLR 28/15 A2986 RMK AO2 T02830147
KIDP 211755Z AUTO 26014G20KT 10SM SCT060 28/16 A2986 RMK AO2 T02810156 10284 20181
KIDP 211735Z AUTO 27011KT 10SM SCT060 27/15 A2988 RMK AO2 T02740154
KIDP 211715Z AUTO 27017G22KT 10SM CLR 27/15 A2988 RMK AO2 T02720147
KIDP 211655Z AUTO 28016G20KT 10SM CLR 27/15 A2989 RMK AO2 T02670146
KIDP 211635Z AUTO 28015G19KT 10SM CLR 26/15 A2990 RMK AO2
KIDP 211615Z AUTO 30015G20KT 10SM CLR 26/15 A2991 RMK AO2 T02580149
KIDP 211550Z AUTO 29014KT 10SM CLR 25/15 A2991 RMK AO2 T02530148
KIDP 211535Z AUTO 30011G17KT 10SM CLR 25/15 A2991 RMK AO2 T02470152
KIDP 211515Z AUTO 29014G17KT 10SM CLR 24/15 A2992 RMK AO2 T02410153
KIDP 211455Z AUTO 30012G17KT 10SM CLR 23/15 A2992 RMK AO2
KIDP 211435Z AUTO 31013G16KT 10SM CLR 23/15 A2992 RMK AO2 T02280153
KIDP 211355Z AUTO 31008KT 10SM CLR 22/15 A2993 RMK AO2 T02170153
KIDP 211335Z AUTO 31010KT 10SM CLR 21/15 A2993 RMK AO2 T02080152
KIDP 211315Z AUTO 32009KT 10SM CLR 20/15 A2993 RMK AO2 T02050154
KIDP 211255Z AUTO 30009KT 10SM CLR 20/16 A2992 RMK AO2
KIDP 211235Z AUTO 28007KT 10SM CLR 19/16 A2993 RMK AO2 T01930160
KIDP 211215Z AUTO 27006KT 10SM CLR 19/16 A2992 RMK AO2 T01880159
KIDP 211155Z AUTO 27006KT 10SM CLR 18/16 A2992 RMK AO2 T01800159 10227 20176
KIDP 211135Z AUTO 29007KT 10SM CLR 18/16 A2992 RMK AO2 T01770157
KIDP 211115Z AUTO 31008KT 10SM CLR 18/16 A2991 RMK AO2 T01790156